createdAt,value
2016-11-09T00:01:39.622Z,3.12
2016-11-09T00:03:22.984Z,3.21
2016-11-09T00:04:51.554Z,3.34
2016-11-09T00:06:05.417Z,3.31
2016-11-09T00:07:34.624Z,3.41
2016-11-09T00:09:03.425Z,3.41
2016-11-09T00:12:15.892Z,3.41
2016-11-09T00:13:31.055Z,3.4
2016-11-09T00:17:42.645Z,3.5
2016-11-09T00:18:56.799Z,3.49
2016-11-09T00:21:40.024Z,3.56
2016-11-09T00:27:05.345Z,3.56
2016-11-09T00:31:02.448Z,3.61
2016-11-09T00:37:57.155Z,3.64
2016-11-09T00:39:26.190Z,3.61
2016-11-09T00:41:39.145Z,3.68
2016-11-09T00:43:37.636Z,3.61
2016-11-09T00:50:02.637Z,3.63
2016-11-09T00:51:32.494Z,3.61
2016-11-09T00:54:14.981Z,3.7
2016-11-09T00:57:27.663Z,3.66
2016-11-09T00:59:26.429Z,3.7
2016-11-09T01:02:08.873Z,3.67
2016-11-09T01:03:52.295Z,3.58
2016-11-09T01:05:51.307Z,3.61
2016-11-09T01:07:20.224Z,3.48
2016-11-09T01:09:03.607Z,3.46
2016-11-09T01:10:32.253Z,3.48
2016-11-09T01:16:44.362Z,3.41
2016-11-09T01:18:12.967Z,3.26
2016-11-09T01:19:41.990Z,3.31
2016-11-09T01:21:25.936Z,3.22
2016-11-09T01:23:24.280Z,3.31
2016-11-09T01:26:51.432Z,3.53
2016-11-09T01:28:20.347Z,3.58
2016-11-09T01:30:19.119Z,3.56
2016-11-09T01:32:17.265Z,3.58
2016-11-09T01:34:01.210Z,3.55
2016-11-09T01:35:44.679Z,3.59
2016-11-09T01:36:58.487Z,3.58
2016-11-09T01:40:40.593Z,3.66
2016-11-09T01:41:54.422Z,3.67
2016-11-09T01:51:46.056Z,3.81
2016-11-09T01:53:44.836Z,3.7
2016-11-09T01:54:58.660Z,3.78
2016-11-09T02:00:08.903Z,3.91
2016-11-09T02:06:19.772Z,3.77
2016-11-09T02:11:15.116Z,3.88
2016-11-09T02:14:12.796Z,3.88
2016-11-09T02:15:26.459Z,3.95
2016-11-09T02:16:40.139Z,3.88
2016-11-09T02:17:53.835Z,3.86
2016-11-09T02:19:07.823Z,3.86
2016-11-09T02:20:22.147Z,3.96
2016-11-09T02:21:51.037Z,4
2016-11-09T02:23:19.544Z,3.99
2016-11-09T02:24:33.083Z,4.02
2016-11-09T02:28:29.809Z,3.85
2016-11-09T02:35:24.092Z,3.95
2016-11-09T02:40:20.499Z,4.03
2016-11-09T02:44:02.056Z,3.99
2016-11-09T02:45:46.137Z,4.04
2016-11-09T02:47:00.215Z,4.09
2016-11-09T02:50:41.479Z,4.1
2016-11-09T02:52:54.412Z,4.06
2016-11-09T02:54:38.369Z,4.06
2016-11-09T02:55:52.084Z,4
2016-11-09T02:57:06.055Z,3.99
2016-11-09T03:04:17.643Z,3.76
2016-11-09T03:05:31.810Z,3.81
2016-11-09T03:07:30.579Z,3.78
2016-11-09T03:08:44.551Z,3.82
2016-11-09T03:10:13.561Z,3.89
2016-11-09T03:11:27.696Z,3.96
2016-11-09T03:13:11.863Z,3.76
2016-11-09T03:15:54.590Z,3.82
2016-11-09T03:19:07.614Z,3.99
2016-11-09T03:20:21.367Z,4.02
2016-11-09T03:21:35.411Z,4.03
2016-11-09T03:23:04.969Z,4.02
2016-11-09T03:24:48.388Z,3.96
2016-11-09T03:28:15.451Z,3.92
2016-11-09T03:29:29.435Z,4.07
2016-11-09T03:30:43.267Z,4.06
2016-11-09T03:31:57.338Z,4
2016-11-09T03:33:11.174Z,4.06
2016-11-09T03:34:25.255Z,4.03
2016-11-09T03:35:39.367Z,3.96
2016-11-09T03:36:53.517Z,3.96
2016-11-09T03:38:07.314Z,3.96
2016-11-09T03:39:21.066Z,3.76
2016-11-09T03:40:34.783Z,3.85
2016-11-09T03:41:48.739Z,3.92
2016-11-09T03:43:02.571Z,3.94
2016-11-09T03:44:16.642Z,3.88
2016-11-09T03:45:30.425Z,3.86
2016-11-09T03:46:44.223Z,3.85
2016-11-09T03:47:58.050Z,3.96
2016-11-09T03:50:10.948Z,3.96
2016-11-09T03:51:24.818Z,3.82
2016-11-09T03:52:38.671Z,3.85
2016-11-09T03:54:07.259Z,3.86
2016-11-09T03:57:48.777Z,3.77
2016-11-09T03:59:03.385Z,3.78
2016-11-09T04:01:45.626Z,3.86
2016-11-09T04:03:29.183Z,3.73
2016-11-09T04:04:57.719Z,3.74
2016-11-09T04:06:11.949Z,3.78
2016-11-09T04:07:40.421Z,3.71
2016-11-09T04:09:09.024Z,3.68
2016-11-09T04:10:37.829Z,3.76
2016-11-09T04:11:51.739Z,3.67
2016-11-09T04:13:05.577Z,3.66
2016-11-09T04:14:34.286Z,3.68
2016-11-09T04:16:03.122Z,3.68
2016-11-09T04:17:31.559Z,3.7
2016-11-09T04:25:09.838Z,3.89
2016-11-09T04:26:53.144Z,3.96
2016-11-09T04:28:21.801Z,3.96
2016-11-09T04:30:20.463Z,3.99
2016-11-09T04:32:18.864Z,4.06
2016-11-09T04:33:49.346Z,4.07
2016-11-09T04:35:03.455Z,4.09
2016-11-09T04:36:17.021Z,4.09
2016-11-09T04:37:30.674Z,4.06
2016-11-09T04:38:44.600Z,4.06
2016-11-09T04:39:58.104Z,4.12
2016-11-09T04:41:12.061Z,4.14
2016-11-09T04:42:26.332Z,4.16
2016-11-09T04:43:54.881Z,4.1
2016-11-09T04:45:08.778Z,4.14
2016-11-09T04:46:37.770Z,4.18
2016-11-09T04:47:51.473Z,4.27
2016-11-09T04:49:05.418Z,4.3
2016-11-09T04:50:18.903Z,4.22
2016-11-09T04:51:33.404Z,4.24
2016-11-09T04:52:47.323Z,4.18
2016-11-09T04:54:01.412Z,4.2
2016-11-09T04:55:15.073Z,4.1
2016-11-09T04:56:28.645Z,4.07
2016-11-09T04:57:42.655Z,4.09
2016-11-09T04:58:56.390Z,4.1
2016-11-09T05:00:10.536Z,4.2
2016-11-09T05:01:24.268Z,4.25
2016-11-09T05:02:37.864Z,4.2
2016-11-09T05:03:52.079Z,4.27
2016-11-09T05:05:20.481Z,4.25
2016-11-09T05:06:34.396Z,4.2
2016-11-09T05:07:48.154Z,4.3
2016-11-09T05:09:02.185Z,4.24
2016-11-09T05:10:16.246Z,4.3
2016-11-09T05:11:44.732Z,4.28
2016-11-09T05:13:13.531Z,4.31
2016-11-09T05:14:27.316Z,4.32
2016-11-09T05:15:41.661Z,4.31
2016-11-09T05:19:24.047Z,4.27
2016-11-09T05:20:37.892Z,4.27
2016-11-09T05:21:52.246Z,4.24
2016-11-09T05:23:05.879Z,4.38
2016-11-09T05:24:19.346Z,4.4
2016-11-09T05:25:33.708Z,4.25
2016-11-09T05:28:46.444Z,4.3
2016-11-09T05:30:00.070Z,4.84
2016-11-09T05:31:13.948Z,5.15
2016-11-09T05:32:27.999Z,5.28
2016-11-09T05:33:41.805Z,5.15
2016-11-09T05:34:55.766Z,4.86
2016-11-09T05:36:09.725Z,4.78
2016-11-09T05:37:23.447Z,4.48
2016-11-09T05:38:37.354Z,4.43
2016-11-09T05:39:51.367Z,4.27
2016-11-09T05:41:05.138Z,4.22
2016-11-09T05:42:18.882Z,4.07
2016-11-09T05:43:32.852Z,4.02
2016-11-09T05:44:46.712Z,3.94
2016-11-09T05:46:00.657Z,3.82
2016-11-09T05:47:14.438Z,3.85
2016-11-09T05:48:28.645Z,3.86
2016-11-09T05:49:42.580Z,3.94
2016-11-09T05:50:56.531Z,3.88
2016-11-09T05:52:10.622Z,3.88
2016-11-09T05:53:26.627Z,3.78
2016-11-09T05:54:40.591Z,3.85
2016-11-09T05:55:54.517Z,3.78
2016-11-09T05:57:08.415Z,3.77
2016-11-09T05:58:22.769Z,3.82
2016-11-09T05:59:36.762Z,3.77
2016-11-09T06:00:50.560Z,3.85
2016-11-09T06:02:04.553Z,3.92
2016-11-09T06:03:18.407Z,3.94
2016-11-09T06:04:32.621Z,3.91
2016-11-09T06:08:29.145Z,3.89
2016-11-09T06:09:42.857Z,3.88
2016-11-09T06:11:11.383Z,3.74
2016-11-09T06:12:54.836Z,3.76
2016-11-09T06:14:23.637Z,3.84
2016-11-09T06:15:37.839Z,3.96
2016-11-09T06:16:51.647Z,4
2016-11-09T06:18:20.400Z,4.02
2016-11-09T06:19:34.327Z,3.91
2016-11-09T06:20:48.614Z,3.96
2016-11-09T06:24:15.455Z,3.99
2016-11-09T06:25:44.320Z,3.94
2016-11-09T06:27:28.159Z,3.99
2016-11-09T06:29:11.628Z,3.84
2016-11-09T06:30:25.672Z,3.94
2016-11-09T06:31:54.188Z,3.95
2016-11-09T06:33:08.608Z,3.94
2016-11-09T06:34:22.492Z,3.85
2016-11-09T06:36:06.119Z,3.92
2016-11-09T06:37:19.951Z,3.89
2016-11-09T06:39:03.589Z,3.86
2016-11-09T06:40:17.456Z,3.89
2016-11-09T06:41:46.617Z,3.99
2016-11-09T06:43:00.713Z,3.96
2016-11-09T06:44:44.598Z,3.95
2016-11-09T06:46:13.203Z,4.06
2016-11-09T06:47:27.028Z,4.02
2016-11-09T06:48:41.199Z,3.94
2016-11-09T06:49:55.151Z,3.96
2016-11-09T06:51:09.022Z,3.99
2016-11-09T06:52:22.861Z,3.88
2016-11-09T06:53:36.598Z,3.92
2016-11-09T06:54:50.774Z,3.86
2016-11-09T06:56:04.792Z,3.78
2016-11-09T06:57:18.369Z,3.78
2016-11-09T06:58:32.175Z,3.82
2016-11-09T07:00:00.669Z,3.81
2016-11-09T07:01:15.481Z,3.88
2016-11-09T07:02:29.673Z,3.7
2016-11-09T07:03:43.303Z,3.76
2016-11-09T07:04:57.138Z,3.82
2016-11-09T07:06:10.926Z,3.76
2016-11-09T07:07:25.002Z,3.84
2016-11-09T07:08:39.151Z,3.82
2016-11-09T07:09:52.960Z,3.77
2016-11-09T07:11:06.580Z,3.78
2016-11-09T07:13:49.314Z,3.66
2016-11-09T07:15:03.868Z,3.66
2016-11-09T07:16:17.743Z,3.66
2016-11-09T07:17:33.767Z,3.63
2016-11-09T07:18:47.448Z,3.67
2016-11-09T07:20:01.730Z,3.66
2016-11-09T07:21:15.415Z,3.61
2016-11-09T07:22:29.494Z,3.74
2016-11-09T07:23:43.882Z,3.66
2016-11-09T07:24:57.421Z,3.74
2016-11-09T07:26:11.372Z,3.76
2016-11-09T07:27:25.156Z,3.73
2016-11-09T07:28:39.233Z,3.61
2016-11-09T07:29:52.936Z,3.55
2016-11-09T07:31:07.102Z,3.58
2016-11-09T07:32:20.970Z,3.67
2016-11-09T07:33:34.715Z,3.68
2016-11-09T07:34:48.795Z,3.71
2016-11-09T07:36:02.538Z,3.71
2016-11-09T07:37:16.385Z,3.77
2016-11-09T07:38:30.857Z,3.71
2016-11-09T07:39:45.133Z,3.73
2016-11-09T07:40:59.001Z,3.77
2016-11-09T07:42:12.928Z,3.68
2016-11-09T07:43:26.996Z,3.74
2016-11-09T07:44:40.839Z,3.71
2016-11-09T07:45:55.042Z,3.59
2016-11-09T07:47:08.771Z,3.78
2016-11-09T07:48:23.313Z,3.7
2016-11-09T07:49:37.137Z,3.68
2016-11-09T07:50:51.351Z,3.67
2016-11-09T07:52:05.095Z,3.73
2016-11-09T07:53:19.406Z,3.64
2016-11-09T07:54:33.458Z,3.67
2016-11-09T07:55:48.022Z,3.68
2016-11-09T07:57:03.161Z,3.68
2016-11-09T07:58:17.161Z,3.73
2016-11-09T07:59:30.820Z,3.66
2016-11-09T08:00:59.279Z,3.71
2016-11-09T08:02:13.157Z,3.68
2016-11-09T08:03:27.273Z,3.66
2016-11-09T08:04:41.224Z,3.64
2016-11-09T08:05:54.831Z,3.58
2016-11-09T08:07:08.657Z,3.53
2016-11-09T08:08:22.369Z,3.68
2016-11-09T08:09:36.911Z,3.53
2016-11-09T08:10:50.565Z,3.63
2016-11-09T08:12:04.384Z,3.55
2016-11-09T08:13:18.462Z,3.67
2016-11-09T08:14:32.019Z,3.58
2016-11-09T08:15:45.890Z,3.73
2016-11-09T08:16:59.804Z,3.68
2016-11-09T08:18:13.688Z,3.66
2016-11-09T08:19:27.371Z,3.64
2016-11-09T08:20:41.016Z,3.67
2016-11-09T08:21:54.727Z,3.64
2016-11-09T08:23:08.921Z,3.66
2016-11-09T08:24:22.518Z,3.67
2016-11-09T08:25:36.273Z,3.61
2016-11-09T08:26:49.873Z,3.74
2016-11-09T08:28:04.224Z,3.71
2016-11-09T08:29:18.408Z,3.78
2016-11-09T08:30:32.459Z,3.85
2016-11-09T08:31:46.058Z,3.96
2016-11-09T08:32:59.803Z,3.99
2016-11-09T08:34:15.814Z,4.03
2016-11-09T08:35:29.673Z,4.1
2016-11-09T08:36:43.578Z,4.03
2016-11-09T08:37:57.390Z,4
2016-11-09T08:39:11.323Z,4
2016-11-09T08:40:25.103Z,4.02
2016-11-09T08:41:38.622Z,4.02
2016-11-09T08:42:52.300Z,4.04
2016-11-09T08:44:06.748Z,4.12
2016-11-09T08:45:20.672Z,4.09
2016-11-09T08:46:34.792Z,4.14
2016-11-09T08:47:48.656Z,4.13
2016-11-09T08:49:02.474Z,4.25
2016-11-09T08:50:16.111Z,4.25
2016-11-09T08:51:29.799Z,4.25
2016-11-09T08:52:43.967Z,4.36
2016-11-09T08:53:57.770Z,4.42
2016-11-09T08:55:11.618Z,4.39
2016-11-09T08:56:25.837Z,4.4
2016-11-09T08:57:40.397Z,4.49
2016-11-09T08:58:55.769Z,4.4
2016-11-09T09:00:09.491Z,4.34
2016-11-09T09:01:38.663Z,4.52
2016-11-09T09:04:36.569Z,4.48
2016-11-09T09:06:49.712Z,4.52
2016-11-09T09:08:33.171Z,4.74
2016-11-09T09:10:31.602Z,4.83
2016-11-09T09:11:46.011Z,4.75
2016-11-09T09:13:15.079Z,4.82
2016-11-09T09:14:58.766Z,4.84
2016-11-09T09:16:42.389Z,4.79
2016-11-09T09:20:39.041Z,4.94
2016-11-09T09:21:53.008Z,5
2016-11-09T09:25:05.209Z,5.23
2016-11-09T09:26:33.816Z,5.22
2016-11-09T09:28:02.670Z,5.33
2016-11-09T09:29:16.788Z,5.4
2016-11-09T09:30:45.826Z,5.38
2016-11-09T09:34:12.676Z,5.47
2016-11-09T09:35:26.943Z,5.49
2016-11-09T09:38:53.969Z,5.56
2016-11-09T09:40:07.784Z,5.61
2016-11-09T09:41:36.382Z,5.65
2016-11-09T09:42:50.802Z,5.73
2016-11-09T09:44:04.594Z,5.67
2016-11-09T09:45:18.251Z,5.65
2016-11-09T09:46:46.815Z,5.67
2016-11-09T09:48:00.946Z,5.62
2016-11-09T09:49:15.046Z,5.7
2016-11-09T09:54:11.615Z,5.73
2016-11-09T09:55:26.162Z,5.83
2016-11-09T09:56:55.248Z,5.87
2016-11-09T09:58:24.285Z,5.91
2016-11-09T10:00:52.302Z,6.06
2016-11-09T10:02:50.767Z,5.99
2016-11-09T10:04:36.661Z,6.07
2016-11-09T10:05:50.676Z,6.07
2016-11-09T10:07:19.223Z,6.05
2016-11-09T10:08:48.724Z,6.06
2016-11-09T10:11:01.856Z,6.01
2016-11-09T10:14:15.042Z,5.91
2016-11-09T10:18:11.885Z,5.91
2016-11-09T10:22:08.307Z,6.2
2016-11-09T10:23:51.796Z,6.16
2016-11-09T10:25:20.632Z,6.25
2016-11-09T10:28:18.200Z,6.17
2016-11-09T10:34:57.657Z,6.28
2016-11-09T10:39:09.366Z,6.43
2016-11-09T10:40:23.513Z,6.41
2016-11-09T10:41:38.054Z,6.34
2016-11-09T10:43:07.037Z,6.2
2016-11-09T10:44:50.413Z,6.15
2016-11-09T10:48:47.269Z,6.28
2016-11-09T10:50:16.188Z,6.39
2016-11-09T10:51:29.903Z,6.32
2016-11-09T10:52:43.490Z,6.41
2016-11-09T10:56:55.107Z,6.38
2016-11-09T10:58:53.407Z,6.32
2016-11-09T11:00:07.181Z,6.36
2016-11-09T11:01:21.617Z,6.31
2016-11-09T11:02:51.442Z,6.47
2016-11-09T11:04:05.298Z,6.49
2016-11-09T11:05:19.491Z,6.49
2016-11-09T11:06:33.295Z,6.57
2016-11-09T11:07:47.590Z,6.72
2016-11-09T11:09:16.175Z,6.68
2016-11-09T11:10:44.911Z,6.59
2016-11-09T11:12:13.945Z,6.65
2016-11-09T11:15:26.495Z,6.6
2016-11-09T11:16:40.217Z,6.59
2016-11-09T11:18:09.047Z,6.6
2016-11-09T11:19:22.993Z,6.43
2016-11-09T11:22:20.491Z,6.57
2016-11-09T11:23:34.484Z,6.56
2016-11-09T11:24:48.193Z,6.67
2016-11-09T11:26:01.974Z,6.75
2016-11-09T11:27:15.641Z,6.87
2016-11-09T11:28:29.390Z,6.83
2016-11-09T11:29:44.257Z,6.85
2016-11-09T11:31:12.781Z,6.85
2016-11-09T11:42:47.929Z,6.41
2016-11-09T11:46:47.055Z,6.56
2016-11-09T11:48:45.798Z,6.75
2016-11-09T11:49:59.649Z,6.68
2016-11-09T11:51:28.281Z,6.64
2016-11-09T11:52:42.179Z,6.39
2016-11-09T11:53:56.003Z,6.38
2016-11-09T11:55:10.458Z,6.32
2016-11-09T11:56:53.851Z,6.36
2016-11-09T11:59:21.614Z,6.52
2016-11-09T12:01:20.349Z,6.6
2016-11-09T12:03:18.534Z,6.52
2016-11-09T12:05:33.087Z,6.56
2016-11-09T12:09:44.194Z,6.44
2016-11-09T12:13:11.962Z,6.6
2016-11-09T12:20:20.815Z,6.49
2016-11-09T12:21:49.433Z,6.44
2016-11-09T12:23:18.139Z,6.41
2016-11-09T12:25:02.210Z,6.62
2016-11-09T12:27:15.154Z,6.65
2016-11-09T12:28:43.719Z,6.72
2016-11-09T12:29:57.447Z,6.68
2016-11-09T12:32:10.995Z,6.71
2016-11-09T12:34:38.761Z,6.65
2016-11-09T12:35:52.643Z,6.68
2016-11-09T12:37:06.454Z,6.71
2016-11-09T12:39:05.201Z,6.74
2016-11-09T12:42:32.501Z,7.04
2016-11-09T12:46:44.109Z,6.86
2016-11-09T12:47:58.024Z,7.01
2016-11-09T12:49:26.682Z,6.93
2016-11-09T12:51:24.825Z,7.04
2016-11-09T12:53:08.603Z,7
2016-11-09T12:55:21.955Z,7.01
2016-11-09T12:57:34.993Z,6.92
2016-11-09T12:59:18.601Z,6.95
2016-11-09T13:00:33.948Z,7.01
2016-11-09T13:02:17.565Z,7.03
2016-11-09T13:04:30.620Z,6.9
2016-11-09T13:07:58.144Z,6.82
2016-11-09T13:09:56.411Z,6.74
2016-11-09T13:16:36.089Z,6.64
2016-11-09T13:20:02.710Z,6.85
2016-11-09T13:21:31.447Z,6.85
2016-11-09T13:22:45.177Z,6.87
2016-11-09T13:23:58.825Z,6.87
2016-11-09T13:25:42.314Z,6.93
2016-11-09T13:28:54.954Z,6.87
2016-11-09T13:32:07.319Z,6.87
2016-11-09T13:33:35.874Z,6.86
2016-11-09T13:35:06.795Z,6.85
2016-11-09T13:36:36.620Z,6.77
2016-11-09T13:38:05.581Z,6.62
2016-11-09T13:39:34.413Z,6.67
2016-11-09T13:40:48.463Z,6.64
2016-11-09T13:42:03.045Z,6.67
2016-11-09T13:45:29.985Z,6.8
2016-11-09T13:51:55.021Z,6.75
2016-11-09T13:53:08.985Z,6.71
2016-11-09T13:54:52.393Z,6.68
2016-11-09T14:01:46.277Z,6.43
2016-11-09T14:03:15.074Z,6.57
2016-11-09T14:09:09.972Z,6.41
2016-11-09T14:10:38.853Z,6.5
2016-11-09T14:16:34.223Z,6.56
2016-11-09T14:17:47.960Z,6.53
2016-11-09T14:19:02.210Z,6.59
2016-11-09T14:20:30.671Z,6.54
2016-11-09T14:21:44.633Z,6.62
2016-11-09T14:22:59.274Z,6.53
2016-11-09T14:24:42.759Z,6.57
2016-11-09T14:26:11.310Z,6.53
2016-11-09T14:27:24.931Z,6.43
2016-11-09T14:28:39.190Z,6.59
2016-11-09T14:30:07.589Z,6.54
2016-11-09T14:31:21.469Z,6.46
2016-11-09T14:32:50.245Z,6.54
2016-11-09T14:34:19.335Z,6.49
2016-11-09T14:35:47.932Z,6.29
2016-11-09T14:37:17.111Z,6.36
2016-11-09T14:38:31.001Z,6.38
2016-11-09T14:39:45.098Z,6.39
2016-11-09T14:40:58.957Z,6.52
2016-11-09T14:42:12.602Z,6.39
2016-11-09T14:43:41.190Z,6.46
2016-11-09T14:45:54.584Z,6.38
2016-11-09T14:47:23.356Z,6.38
2016-11-09T14:48:37.562Z,6.32
2016-11-09T14:50:06.123Z,6.32
2016-11-09T14:54:03.059Z,6.22
2016-11-09T14:55:46.710Z,6.15
2016-11-09T14:57:30.027Z,6.13
2016-11-09T14:59:13.610Z,6.22
2016-11-09T15:00:42.910Z,6.13
2016-11-09T15:02:56.345Z,6.17
2016-11-09T15:04:25.004Z,6.22
2016-11-09T15:06:08.557Z,6.22
2016-11-09T15:07:22.488Z,6.17
2016-11-09T15:08:36.111Z,6.2
2016-11-09T15:09:49.619Z,6.2
2016-11-09T15:11:03.659Z,6.15
2016-11-09T15:12:19.667Z,6.16
2016-11-09T15:16:01.549Z,6.06
2016-11-09T15:17:15.593Z,6.07
2016-11-09T15:19:14.056Z,5.95
2016-11-09T15:21:12.242Z,6.05
2016-11-09T15:22:41.247Z,6.09
2016-11-09T15:23:55.385Z,6.12
2016-11-09T15:29:20.735Z,6.05
2016-11-09T15:30:49.359Z,5.92
2016-11-09T15:34:31.570Z,5.95
2016-11-09T15:36:08.536Z,5.91
2016-11-09T15:37:22.923Z,5.91
2016-11-09T15:39:06.373Z,5.95
2016-11-09T15:40:34.983Z,5.91
2016-11-09T15:44:08.627Z,5.92
2016-11-09T15:47:46.591Z,5.9
2016-11-09T15:49:00.858Z,5.99
2016-11-09T15:50:45.514Z,6.06
2016-11-09T15:56:56.355Z,5.87
2016-11-09T15:58:25.476Z,5.77
2016-11-09T16:00:38.544Z,5.65
2016-11-09T16:01:52.636Z,5.64
2016-11-09T16:08:02.841Z,5.65
2016-11-09T16:09:16.783Z,5.7
2016-11-09T16:10:31.063Z,5.72
2016-11-09T16:11:59.822Z,5.65
2016-11-09T16:14:57.245Z,5.69
2016-11-09T16:18:09.630Z,5.69
2016-11-09T16:23:05.370Z,5.69
2016-11-09T16:29:59.638Z,5.62
2016-11-09T16:31:43.092Z,5.64
2016-11-09T16:35:39.392Z,5.77
2016-11-09T16:36:53.250Z,5.81
2016-11-09T16:39:35.891Z,5.73
2016-11-09T16:40:49.750Z,5.64
2016-11-09T16:42:04.048Z,5.67
2016-11-09T16:43:32.602Z,5.72
2016-11-09T16:46:59.715Z,5.58
2016-11-09T16:48:28.606Z,5.54
2016-11-09T16:53:09.429Z,5.64
2016-11-09T16:54:37.740Z,5.59
2016-11-09T16:56:06.307Z,5.51
2016-11-09T16:59:21.093Z,5.54
2016-11-09T17:04:17.223Z,5.54
2016-11-09T17:07:44.417Z,5.44
2016-11-09T17:09:13.569Z,5.43
2016-11-09T17:11:11.687Z,5.41
2016-11-09T17:12:25.454Z,5.43
2016-11-09T17:13:39.335Z,5.34
2016-11-09T17:15:08.358Z,5.34
2016-11-09T17:16:37.542Z,5.33
2016-11-09T17:18:35.748Z,5.46
2016-11-09T17:22:32.470Z,5.51
2016-11-09T17:28:12.445Z,5.52
2016-11-09T17:29:58.140Z,5.4
2016-11-09T17:31:47.002Z,5.46
2016-11-09T17:33:00.968Z,5.47
2016-11-09T17:36:28.338Z,5.4
2016-11-09T17:38:26.754Z,5.34
2016-11-09T17:39:40.614Z,5.4
2016-11-09T17:40:54.208Z,5.37
2016-11-09T17:44:50.935Z,5.41
2016-11-09T17:48:03.786Z,5.4
2016-11-09T17:49:17.531Z,5.34
2016-11-09T17:51:30.666Z,5.28
2016-11-09T17:52:44.809Z,5.37
2016-11-09T17:54:13.705Z,5.34
2016-11-09T17:58:10.070Z,5.33
2016-11-09T18:01:37.805Z,5.26
2016-11-09T18:08:47.208Z,5.28
2016-11-09T18:10:45.414Z,5.51
2016-11-09T18:12:28.993Z,5.52
2016-11-09T18:16:55.575Z,5.41
2016-11-09T18:25:18.906Z,5.44
2016-11-09T18:29:00.323Z,5.36
2016-11-09T18:30:14.567Z,5.4
2016-11-09T18:31:28.652Z,5.47
2016-11-09T18:33:56.595Z,5.41
2016-11-09T18:38:23.250Z,5.49
2016-11-09T18:43:04.822Z,5.62
2016-11-09T18:44:18.828Z,5.59
2016-11-09T18:47:16.150Z,5.64
2016-11-09T18:49:43.925Z,5.67
2016-11-09T18:57:10.515Z,5.62
2016-11-09T18:59:38.314Z,5.55
2016-11-09T19:03:35.489Z,5.67
2016-11-09T19:05:48.527Z,5.67
2016-11-09T19:07:17.143Z,5.72
2016-11-09T19:08:45.825Z,5.72
2016-11-09T19:12:57.608Z,5.76
2016-11-09T19:17:24.387Z,5.84
2016-11-09T19:18:38.493Z,5.81
2016-11-09T19:20:22.204Z,5.81
2016-11-09T19:21:50.708Z,5.91
2016-11-09T19:23:04.440Z,5.92
2016-11-09T19:24:18.698Z,5.84
2016-11-09T19:25:33.401Z,5.95
2016-11-09T19:27:02.114Z,5.87
2016-11-09T19:30:29.172Z,5.84
2016-11-09T19:33:42.051Z,5.9
2016-11-09T19:37:38.768Z,5.94
2016-11-09T19:38:53.081Z,5.98
2016-11-09T19:40:21.578Z,5.92
2016-11-09T19:41:35.458Z,5.88
2016-11-09T19:43:48.408Z,5.83
2016-11-09T19:45:46.864Z,5.74
2016-11-09T19:47:15.818Z,5.87
2016-11-09T19:57:37.333Z,5.7
2016-11-09T19:59:06.822Z,5.67
2016-11-09T20:03:48.245Z,5.49
2016-11-09T20:05:02.099Z,5.43
2016-11-09T20:06:16.423Z,5.43
2016-11-09T20:10:13.901Z,5.31
2016-11-09T20:11:28.847Z,5.4
2016-11-09T20:13:12.362Z,5.22
2016-11-09T20:15:10.972Z,5.26
2016-11-09T20:16:25.840Z,5.31
2016-11-09T20:19:38.299Z,5.18
2016-11-09T20:22:06.397Z,5.16
2016-11-09T20:23:20.871Z,5.2
2016-11-09T20:24:49.832Z,5.19
2016-11-09T20:26:18.621Z,5.22
2016-11-09T20:27:32.638Z,5.18
2016-11-09T20:28:46.373Z,5.23
2016-11-09T20:30:00.376Z,5.12
2016-11-09T20:31:14.485Z,5.02
2016-11-09T20:34:41.453Z,4.83
2016-11-09T20:37:53.783Z,4.76
2016-11-09T20:39:10.450Z,4.78
2016-11-09T20:40:24.645Z,4.63
2016-11-09T20:41:39.252Z,4.63
2016-11-09T20:43:07.972Z,4.58
2016-11-09T20:45:06.112Z,4.57
2016-11-09T20:46:20.224Z,4.66
2016-11-09T20:48:33.579Z,4.67
2016-11-09T20:54:42.954Z,4.61
2016-11-09T20:56:12.078Z,4.49
2016-11-09T20:57:26.055Z,4.52
2016-11-09T20:58:55.057Z,4.52
2016-11-09T21:00:24.091Z,4.42
2016-11-09T21:02:22.937Z,4.38
2016-11-09T21:09:02.494Z,4.49
2016-11-09T21:15:27.220Z,4.58
2016-11-09T21:16:55.916Z,4.53
2016-11-09T21:18:54.720Z,4.45
2016-11-09T21:20:38.116Z,4.45
2016-11-09T21:23:51.678Z,4.5
2016-11-09T21:25:50.206Z,4.58
2016-11-09T21:27:48.994Z,4.7
2016-11-09T21:29:17.942Z,4.63
2016-11-09T21:32:59.831Z,4.66
2016-11-09T21:34:14.390Z,4.7
2016-11-09T21:35:28.256Z,4.66
2016-11-09T21:37:41.215Z,4.74
2016-11-09T21:42:36.769Z,4.86
2016-11-09T21:48:32.660Z,5.18
2016-11-09T21:49:46.555Z,5.2
2016-11-09T21:51:30.627Z,5.15
2016-11-09T21:53:14.025Z,5.18
2016-11-09T21:54:28.082Z,5.22
2016-11-09T21:55:57.518Z,5.26
2016-11-09T21:57:26.210Z,5.33
2016-11-09T21:59:09.529Z,5.29
2016-11-09T22:00:52.969Z,5.4
2016-11-09T22:02:07.437Z,5.31
2016-11-09T22:03:21.595Z,5.37
2016-11-09T22:07:03.841Z,5.54
2016-11-09T22:08:17.936Z,5.55
2016-11-09T22:09:48.179Z,5.62
2016-11-09T22:12:30.903Z,5.64
2016-11-09T22:13:59.515Z,5.73
2016-11-09T22:16:42.814Z,5.83
2016-11-09T22:23:23.016Z,5.88
2016-11-09T22:24:51.613Z,5.9
2016-11-09T22:26:07.744Z,5.91
2016-11-09T22:27:21.650Z,5.84
2016-11-09T22:28:35.598Z,5.97
2016-11-09T22:29:50.244Z,5.91
2016-11-09T22:31:19.068Z,5.97
2016-11-09T22:33:02.366Z,6.02
2016-11-09T22:34:45.738Z,5.95
2016-11-09T22:36:14.785Z,6.07
2016-11-09T22:38:12.974Z,6.07
2016-11-09T22:44:22.681Z,6.06
2016-11-09T22:46:06.672Z,5.94
2016-11-09T22:47:21.478Z,5.83
2016-11-09T22:48:36.212Z,5.97
2016-11-09T22:49:51.151Z,5.92
2016-11-09T22:51:05.173Z,5.92
2016-11-09T22:53:03.360Z,5.84
2016-11-09T22:54:32.956Z,5.83
2016-11-09T22:56:31.612Z,5.95
2016-11-09T22:57:45.429Z,5.91
2016-11-09T22:59:14.064Z,5.99
2016-11-09T23:03:25.888Z,5.84
2016-11-09T23:04:39.746Z,5.9
2016-11-09T23:05:53.702Z,5.88
2016-11-09T23:07:22.244Z,5.83
2016-11-09T23:08:52.099Z,5.94
2016-11-09T23:10:21.278Z,5.81
2016-11-09T23:12:19.641Z,5.84
2016-11-09T23:15:47.261Z,5.83
2016-11-09T23:17:15.907Z,5.73
2016-11-09T23:18:29.946Z,5.8
2016-11-09T23:19:43.928Z,5.69
2016-11-09T23:21:42.631Z,5.62
2016-11-09T23:22:56.341Z,5.69
2016-11-09T23:24:11.267Z,5.72
2016-11-09T23:25:40.216Z,5.76
2016-11-09T23:26:54.251Z,5.8
2016-11-09T23:28:23.771Z,5.61
2016-11-09T23:31:06.567Z,5.61
2016-11-09T23:32:20.334Z,5.69
2016-11-09T23:36:02.765Z,5.59
2016-11-09T23:37:31.533Z,5.52
2016-11-09T23:38:45.569Z,5.61
2016-11-09T23:39:59.562Z,5.58
2016-11-09T23:41:13.979Z,5.54
2016-11-09T23:43:12.538Z,5.38
2016-11-09T23:50:37.790Z,5.52
2016-11-09T23:51:51.901Z,5.51
2016-11-09T23:53:50.737Z,5.56
2016-11-09T23:55:48.958Z,5.51
2016-11-09T23:57:32.728Z,5.54
2016-11-09T23:59:02.064Z,5.51
